Time;durP1;ratioP1;P1;durP2;ratioP2;P2;SDS_P1;SDS_P2;PMS_P1;PMS_P2;Temp;Humidity;BMP_temperature;BMP_pressure;BME280_temperature;BME280_humidity;BME280_pressure;Samples;Min_cycle;Max_cycle;Signal;HPM_P1;HPM_P2
2021/04/14 00:00:18;;;;;;;22.22;17.60;;;;;;;9.71;78.69;99570.31;1743461;80;21217;-58
2021/04/14 00:02:45;;;;;;;30.23;21.02;;;;;;;9.75;78.58;99572.39;1743717;80;22169;-59
2021/04/14 00:05:16;;;;;;;34.70;21.57;;;;;;;9.75;78.52;99577.30;1743568;80;21176;-58
2021/04/14 00:07:43;;;;;;;33.97;23.77;;;;;;;9.75;78.53;99571.05;1742147;80;21519;-58
2021/04/14 00:10:12;;;;;;;31.02;21.93;;;;;;;9.72;78.54;99570.72;1746155;80;21183;-58
2021/04/14 00:12:41;;;;;;;22.85;17.80;;;;;;;9.72;78.53;99577.91;1743782;80;21175;-58
2021/04/14 00:15:17;;;;;;;26.17;16.25;;;;;;;9.71;78.50;99574.81;1742403;80;21226;-58
2021/04/14 00:17:45;;;;;;;19.82;15.83;;;;;;;9.70;78.49;99571.72;1741211;80;21215;-58
2021/04/14 00:20:15;;;;;;;17.75;12.73;;;;;;;9.70;78.46;99572.59;1745043;80;22726;-58
2021/04/14 00:22:43;;;;;;;23.47;14.33;;;;;;;9.71;78.23;99578.38;1745377;80;21248;-57
2021/04/14 00:25:15;;;;;;;16.90;12.90;;;;;;;9.71;78.13;99578.38;1741875;80;21691;-57
2021/04/14 00:27:42;;;;;;;17.77;12.88;;;;;;;9.71;78.00;99573.47;1747598;80;21175;-57
2021/04/14 00:30:11;;;;;;;16.75;12.40;;;;;;;9.70;77.85;99574.41;1751398;80;21115;-57
2021/04/14 00:32:38;;;;;;;15.93;9.33;;;;;;;9.69;77.69;99572.23;1746088;80;21243;-58
2021/04/14 00:35:08;;;;;;;15.13;9.78;;;;;;;9.69;77.52;99566.85;1748283;80;21211;-58
2021/04/14 00:37:35;;;;;;;9.88;7.80;;;;;;;9.71;77.33;99570.31;1744921;80;21182;-57
2021/04/14 00:40:08;;;;;;;12.23;7.85;;;;;;;9.72;77.23;99573.41;1745470;80;21208;-59
2021/04/14 00:42:36;;;;;;;8.75;5.90;;;;;;;9.74;77.05;99571.52;1738657;80;22584;-57
2021/04/14 00:45:06;;;;;;;9.05;7.12;;;;;;;9.76;76.66;99566.08;1734464;80;22403;-59
2021/04/14 00:47:34;;;;;;;9.08;6.28;;;;;;;9.76;76.48;99567.42;1729843;80;22465;-57
2021/04/14 00:50:03;;;;;;;21.57;7.83;;;;;;;9.76;76.29;99566.95;1734419;80;21408;-59
2021/04/14 00:52:30;;;;;;;10.03;7.30;;;;;;;9.76;76.05;99568.30;1731971;80;21128;-58
2021/04/14 00:54:58;;;;;;;11.73;7.33;;;;;;;9.79;75.95;99564.56;1732437;80;21116;-58
2021/04/14 00:57:26;;;;;;;8.40;5.20;;;;;;;9.82;75.78;99567.13;1731306;80;22206;-59
2021/04/14 00:59:53;;;;;;;6.95;6.05;;;;;;;9.82;75.62;99557.71;1729237;80;21125;-58
2021/04/14 01:02:20;;;;;;;10.05;6.95;;;;;;;9.82;75.52;99558.59;1731964;80;21992;-56
2021/04/14 01:04:47;;;;;;;8.50;6.90;;;;;;;9.83;75.40;99558.98;1732492;80;21153;-57
2021/04/14 01:07:15;;;;;;;7.30;6.58;;;;;;;9.82;75.32;99553.68;1732214;80;21153;-58
2021/04/14 01:09:43;;;;;;;9.50;7.42;;;;;;;9.82;75.24;99553.21;1733328;80;21877;-58
2021/04/14 01:12:10;;;;;;;10.48;6.95;;;;;;;9.80;75.08;99555.09;1728132;80;21125;-57
2021/04/14 01:14:38;;;;;;;10.53;6.10;;;;;;;9.81;74.97;99548.77;1730714;80;21544;-58
2021/04/14 01:17:05;;;;;;;9.38;6.92;;;;;;;9.81;74.89;99547.43;1731479;80;21640;-59
2021/04/14 01:19:33;;;;;;;10.60;6.75;;;;;;;9.83;74.83;99546.02;1730871;80;21207;-59
2021/04/14 01:22:00;;;;;;;9.70;7.75;;;;;;;9.82;74.77;99542.45;1725727;80;22504;-58
2021/04/14 01:24:29;;;;;;;11.60;7.37;;;;;;;9.82;74.74;99539.77;1732965;80;21240;-58
2021/04/14 01:27:00;;;;;;;10.65;9.05;;;;;;;9.82;74.62;99544.27;1731876;80;21667;-58
2021/04/14 01:29:30;;;;;;;11.22;7.87;;;;;;;9.81;74.62;99547.43;1732390;80;21136;-59
2021/04/14 01:31:59;;;;;;;12.55;6.95;;;;;;;9.81;74.52;99542.05;1729282;80;21137;-58
2021/04/14 01:34:28;;;;;;;8.93;6.55;;;;;;;9.80;74.49;99536.28;1669322;83;22126;-59
2021/04/14 01:36:56;;;;;;;11.05;8.05;;;;;;;9.83;74.48;99540.17;1732893;80;21145;-58
2021/04/14 01:39:23;;;;;;;10.82;7.58;;;;;;;9.83;74.45;99540.64;1734314;80;21663;-56
2021/04/14 01:41:50;;;;;;;12.98;7.22;;;;;;;9.82;74.47;99543.80;1732054;80;22335;-58
2021/04/14 01:44:18;;;;;;;17.10;9.50;;;;;;;9.82;74.41;99540.23;1704012;80;21150;-57
2021/04/14 01:46:47;;;;;;;14.93;9.35;;;;;;;9.81;74.41;99543.40;1699846;82;21017;-57
2021/04/14 01:49:14;;;;;;;11.10;8.03;;;;;;;9.81;74.41;99540.71;1696675;82;21136;-58
2021/04/14 01:51:41;;;;;;;11.03;7.97;;;;;;;9.81;74.41;99538.02;1698955;82;21179;-59
2021/04/14 01:54:10;;;;;;;13.93;8.85;;;;;;;9.82;74.45;99538.42;1695718;82;21267;-59
2021/04/14 01:56:41;;;;;;;17.60;9.80;;;;;;;9.82;74.51;99533.05;1699403;82;21143;-59
2021/04/14 01:59:11;;;;;;;14.55;9.23;;;;;;;9.80;74.53;99529.55;1700817;82;21717;-58
2021/04/14 02:01:40;;;;;;;13.62;10.48;;;;;;;9.80;74.58;99530.03;1696697;82;21179;-59
2021/04/14 02:04:09;;;;;;;11.95;10.32;;;;;;;9.79;74.58;99525.12;1696298;82;21207;-59
2021/04/14 02:06:37;;;;;;;11.63;10.32;;;;;;;9.77;74.58;99516.28;1698483;82;21234;-59
2021/04/14 02:09:07;;;;;;;11.48;8.85;;;;;;;9.77;74.57;99520.79;1699050;82;21263;-59
2021/04/14 02:11:34;;;;;;;14.18;9.20;;;;;;;9.80;74.61;99527.34;1697985;82;21384;-59
2021/04/14 02:14:01;;;;;;;15.48;9.75;;;;;;;9.80;74.60;99521.96;1699833;82;21215;-59
2021/04/14 02:16:28;;;;;;;15.43;9.83;;;;;;;9.79;74.59;99518.41;1699537;82;21896;-59
2021/04/14 02:18:57;;;;;;;13.58;11.05;;;;;;;9.77;74.59;99511.38;1640324;85;21162;-58
2021/04/14 02:21:24;;;;;;;14.35;11.75;;;;;;;9.77;74.59;99515.41;1655747;84;21138;-59
2021/04/14 02:23:52;;;;;;;19.60;11.12;;;;;;;9.76;74.50;99510.98;1656030;84;21523;-59
2021/04/14 02:26:21;;;;;;;20.80;13.30;;;;;;;9.74;74.44;99513.73;1657092;84;21220;-59
2021/04/14 02:28:49;;;;;;;16.15;11.65;;;;;;;9.71;74.39;99508.50;1651406;84;21216;-59
2021/04/14 02:31:31;;;;;;;17.37;11.30;;;;;;;9.67;74.35;99510.95;1663813;83;21203;-59
2021/04/14 02:34:05;;;;;;;15.48;9.45;;;;;;;9.66;74.26;99505.17;1664767;83;21207;-58
2021/04/14 02:36:32;;;;;;;13.53;9.68;;;;;;;9.63;74.21;99505.31;1667395;83;21409;-58
2021/04/14 02:39:01;;;;;;;13.45;9.75;;;;;;;9.57;74.08;99506.96;1664013;83;21121;-59
2021/04/14 02:41:30;;;;;;;11.70;9.53;;;;;;;9.51;74.05;99516.66;1665607;83;21208;-59
2021/04/14 02:43:57;;;;;;;13.40;10.85;;;;;;;9.45;74.07;99518.28;1677334;82;21183;-59
2021/04/14 02:46:24;;;;;;;13.00;11.33;;;;;;;9.40;74.10;99521.66;1730412;80;21200;-59
2021/04/14 02:48:53;;;;;;;17.25;11.22;;;;;;;9.34;74.21;99516.59;1727604;80;21902;-59
2021/04/14 02:51:20;;;;;;;14.33;10.97;;;;;;;9.28;74.30;99515.52;1730712;80;21555;-59
2021/04/14 02:53:51;;;;;;;12.95;9.08;;;;;;;9.21;74.32;99521.64;1731254;80;21247;-59
2021/04/14 02:56:18;;;;;;;14.20;8.07;;;;;;;9.18;74.32;99526.30;1734879;80;21138;-59
2021/04/14 02:58:47;;;;;;;11.27;7.47;;;;;;;9.14;74.37;99519.31;1735314;80;21664;-59
2021/04/14 03:01:15;;;;;;;8.07;7.20;;;;;;;9.11;74.49;99521.66;1732342;80;21065;-59
2021/04/14 03:03:43;;;;;;;9.90;7.33;;;;;;;9.07;74.46;99527.66;1731041;80;21249;-59
2021/04/14 03:06:11;;;;;;;13.43;8.47;;;;;;;9.03;74.43;99526.52;1709819;80;21476;-59
2021/04/14 03:08:39;;;;;;;11.15;8.78;;;;;;;9.00;74.55;99528.02;1726351;80;21199;-59
2021/04/14 03:11:08;;;;;;;10.17;8.07;;;;;;;8.97;74.71;99529.02;1732865;80;21674;-58
2021/04/14 03:13:37;;;;;;;10.83;7.30;;;;;;;8.93;74.79;99528.73;1730353;80;21505;-59
2021/04/14 03:16:06;;;;;;;12.03;8.73;;;;;;;8.89;74.86;99528.48;1729181;80;21240;-59
2021/04/14 03:18:34;;;;;;;13.37;9.03;;;;;;;8.86;74.98;99532.64;1729268;80;21596;-59
2021/04/14 03:21:01;;;;;;;8.13;7.10;;;;;;;8.83;75.10;99539.98;1731110;80;21963;-59
2021/04/14 03:23:29;;;;;;;14.03;7.33;;;;;;;8.81;75.19;99526.63;1731975;80;21164;-59
2021/04/14 03:25:56;;;;;;;6.23;5.60;;;;;;;8.82;75.29;99533.73;1728428;80;22217;-59
2021/04/14 03:28:23;;;;;;;8.20;6.03;;;;;;;8.83;75.35;99528.77;1733198;80;21471;-59
2021/04/14 03:30:51;;;;;;;10.03;6.97;;;;;;;8.85;75.40;99528.67;1732145;80;21232;-59
2021/04/14 03:33:18;;;;;;;11.03;7.00;;;;;;;8.87;75.37;99520.97;1726177;80;21244;-59
2021/04/14 03:35:47;;;;;;;9.77;5.90;;;;;;;8.86;75.26;99525.94;1732381;80;21180;-59
2021/04/14 03:38:14;;;;;;;5.90;5.37;;;;;;;8.87;75.12;99517.41;1730028;80;21394;-58
2021/04/14 03:40:41;;;;;;;10.53;5.67;;;;;;;8.88;74.96;99522.72;1732240;80;21489;-59
2021/04/14 03:43:09;;;;;;;11.37;7.17;;;;;;;8.88;74.72;99520.50;1733032;80;21122;-59
2021/04/14 03:45:41;;;;;;;9.17;5.70;;;;;;;8.86;74.55;99517.88;1735256;80;21135;-58
2021/04/14 03:48:09;;;;;;;6.83;4.17;;;;;;;8.87;74.44;99514.73;1734588;80;21200;-57
2021/04/14 03:50:37;;;;;;;4.63;4.13;;;;;;;8.88;74.28;99515.13;1732235;80;21405;-59
2021/04/14 03:53:12;;;;;;;7.30;4.13;;;;;;;8.91;73.96;99516.34;1735441;80;21219;-59
2021/04/14 03:55:40;;;;;;;8.63;4.87;;;;;;;8.93;73.62;99515.31;1736375;80;21208;-59
2021/04/14 03:58:07;;;;;;;8.57;4.63;;;;;;;8.96;73.27;99520.56;1734058;80;21109;-59
2021/04/14 04:00:34;;;;;;;5.63;4.27;;;;;;;8.97;72.85;99520.96;1735803;80;21524;-59
2021/04/14 04:03:02;;;;;;;8.93;5.62;;;;;;;8.98;72.55;99521.37;1739301;80;21113;-59
2021/04/14 04:05:30;;;;;;;9.37;5.57;;;;;;;9.00;72.00;99523.52;1738997;80;21144;-59
2021/04/14 04:07:57;;;;;;;12.20;4.83;;;;;;;8.99;71.68;99519.55;1732896;80;21145;-59
2021/04/14 04:10:24;;;;;;;6.87;3.47;;;;;;;8.99;71.46;99523.11;1735619;80;21103;-59
2021/04/14 04:12:56;;;;;;;10.77;3.47;;;;;;;9.01;71.16;99523.05;1735860;80;21172;-59
2021/04/14 04:15:23;;;;;;;4.80;3.73;;;;;;;9.02;70.96;99526.11;1737572;80;21215;-59
2021/04/14 04:17:51;;;;;;;7.83;4.10;;;;;;;9.01;70.65;99525.27;1734273;80;21111;-59
2021/04/14 04:20:18;;;;;;;5.37;3.70;;;;;;;9.03;70.36;99521.14;1738302;80;21173;-59
2021/04/14 04:22:46;;;;;;;6.77;4.27;;;;;;;9.04;70.09;99518.39;1735117;80;21469;-59
2021/04/14 04:25:14;;;;;;;6.75;4.60;;;;;;;9.04;69.53;99517.05;1736168;80;22238;-59
2021/04/14 04:27:42;;;;;;;5.20;3.97;;;;;;;9.04;69.19;99513.02;1742085;80;22290;-60
2021/04/14 04:30:10;;;;;;;7.07;4.03;;;;;;;9.03;68.87;99511.28;1735922;80;21159;-59
2021/04/14 04:32:38;;;;;;;8.17;4.87;;;;;;;9.01;68.50;99513.66;1735899;80;21128;-60
2021/04/14 04:35:06;;;;;;;7.50;4.23;;;;;;;8.98;68.19;99514.66;1736563;80;21108;-60
2021/04/14 04:37:34;;;;;;;9.17;3.83;;;;;;;8.95;68.04;99513.44;1736392;80;21538;-60
2021/04/14 04:40:03;;;;;;;4.27;3.17;;;;;;;8.97;67.90;99516.06;1737860;80;22380;-60
2021/04/14 04:42:30;;;;;;;6.00;4.23;;;;;;;8.97;67.43;99520.09;1735387;80;21202;-60
2021/04/14 04:44:58;;;;;;;7.20;4.87;;;;;;;8.97;67.47;99518.28;1710605;80;21646;-60
2021/04/14 04:47:25;;;;;;;10.87;4.77;;;;;;;8.98;67.31;99519.16;1694007;82;21186;-60
2021/04/14 04:49:53;;;;;;;9.50;5.00;;;;;;;8.99;66.92;99526.27;1697195;82;21100;-60
2021/04/14 04:52:20;;;;;;;4.97;4.40;;;;;;;9.00;66.76;99529.36;1694875;82;21378;-59
2021/04/14 04:54:47;;;;;;;7.43;4.73;;;;;;;9.00;66.35;99522.64;1694120;82;21214;-60
2021/04/14 04:57:15;;;;;;;8.13;4.63;;;;;;;9.00;65.83;99527.55;1690891;82;21190;-59
2021/04/14 04:59:42;;;;;;;6.17;4.27;;;;;;;8.99;65.69;99532.52;1697309;82;21473;-58
2021/04/14 05:02:09;;;;;;;6.23;4.13;;;;;;;8.98;65.36;99535.26;1691190;82;21215;-60
2021/04/14 05:04:37;;;;;;;6.93;4.70;;;;;;;8.95;64.95;99534.91;1667255;82;22215;-59
2021/04/14 05:07:04;;;;;;;6.03;4.23;;;;;;;8.93;64.93;99539.97;1694692;82;21241;-59
2021/04/14 05:09:32;;;;;;;7.93;3.97;;;;;;;8.91;64.78;99528.42;1695887;82;21189;-58
2021/04/14 05:11:59;;;;;;;4.30;3.90;;;;;;;8.88;64.22;99532.11;1698202;82;21211;-61
2021/04/14 05:14:27;;;;;;;8.50;5.30;;;;;;;8.85;63.94;99543.44;1693231;82;22781;-60
2021/04/14 05:16:56;;;;;;;5.37;4.37;;;;;;;8.83;63.85;99546.22;1698208;82;22416;-60
2021/04/14 05:19:25;;;;;;;7.10;5.37;;;;;;;8.82;63.90;99542.25;1696593;82;21222;-60
2021/04/14 05:21:53;;;;;;;8.30;4.97;;;;;;;8.82;63.74;99539.57;1693963;82;21181;-59
2021/04/14 05:24:21;;;;;;;4.97;3.60;;;;;;;8.83;63.48;99554.73;1693670;82;21229;-60
2021/04/14 05:26:48;;;;;;;7.47;5.00;;;;;;;8.82;62.99;99552.52;1691054;82;21218;-58
2021/04/14 05:29:16;;;;;;;11.47;4.13;;;;;;;8.80;63.08;99550.84;1696001;82;21450;-59
2021/04/14 05:31:43;;;;;;;7.53;4.73;;;;;;;8.81;62.96;99545.88;1696186;82;21208;-61
2021/04/14 05:34:11;;;;;;;5.77;3.57;;;;;;;8.81;62.92;99550.77;1694057;82;21831;-59
2021/04/14 05:36:38;;;;;;;6.73;4.10;;;;;;;8.86;62.96;99543.37;1695644;82;21225;-59
2021/04/14 05:39:07;;;;;;;10.37;4.73;;;;;;;8.91;62.57;99540.51;1695619;82;21172;-61
2021/04/14 05:41:34;;;;;;;7.10;5.30;;;;;;;8.95;62.54;99542.09;1695860;82;21398;-60
2021/04/14 05:44:02;;;;;;;9.17;4.70;;;;;;;8.95;62.27;99545.66;1700033;81;21189;-60
2021/04/14 05:46:29;;;;;;;6.23;4.30;;;;;;;8.98;62.24;99536.59;1733133;81;21467;-59
2021/04/14 05:48:57;;;;;;;9.55;4.65;;;;;;;8.98;61.87;99541.50;1734628;80;21423;-59
2021/04/14 05:51:27;;;;;;;7.77;4.70;;;;;;;8.98;61.74;99536.13;1737093;80;21201;-60
2021/04/14 05:53:54;;;;;;;7.53;4.90;;;;;;;8.97;61.75;99545.13;1733383;80;21279;-59
2021/04/14 05:56:24;;;;;;;4.57;3.90;;;;;;;8.98;61.80;99543.31;1732194;80;21219;-59
2021/04/14 05:58:51;;;;;;;8.37;5.10;;;;;;;8.98;61.80;99540.16;1729402;80;21205;-60
2021/04/14 06:01:21;;;;;;;8.77;4.10;;;;;;;8.95;61.50;99533.57;1728440;80;21757;-60
2021/04/14 06:03:49;;;;;;;6.53;5.10;;;;;;;8.95;61.58;99542.09;1730080;80;21633;-59
2021/04/14 06:06:17;;;;;;;5.97;4.43;;;;;;;8.92;61.70;99544.47;1735613;80;21773;-59
2021/04/14 06:08:44;;;;;;;6.70;4.70;;;;;;;8.93;61.73;99546.69;1732091;80;21136;-59
2021/04/14 06:11:13;;;;;;;6.70;4.47;;;;;;;8.92;61.72;99551.18;1732999;80;21172;-59
2021/04/14 06:13:40;;;;;;;7.97;5.43;;;;;;;8.92;61.85;99545.81;1734169;80;21517;-60
2021/04/14 06:16:09;;;;;;;10.00;4.90;;;;;;;8.93;61.70;99548.03;1670130;83;21205;-59
2021/04/14 06:18:36;;;;;;;9.67;5.10;;;;;;;8.92;61.80;99552.52;1684050;82;21718;-59
2021/04/14 06:21:05;;;;;;;6.93;4.80;;;;;;;8.92;62.04;99551.18;1734538;80;21738;-59
2021/04/14 06:23:32;;;;;;;13.17;5.93;;;;;;;8.94;62.25;99549.74;1734589;80;21124;-59
2021/04/14 06:26:13;;;;;;;8.17;5.73;;;;;;;8.96;61.98;99549.21;1732098;80;21238;-59
2021/04/14 06:28:29;;;;;;;8.80;6.30;;;;;;;8.97;61.88;99549.15;1727895;80;22044;-59
2021/04/14 06:30:57;;;;;;;9.77;4.33;;;;;;;9.01;61.94;99544.53;1733165;80;21643;-59
2021/04/14 06:33:25;;;;;;;7.33;5.50;;;;;;;9.02;61.92;99543.56;1735513;80;21203;-60
2021/04/14 06:35:53;;;;;;;9.03;5.50;;;;;;;9.04;61.93;99545.71;1734974;80;21183;-58
2021/04/14 06:38:27;;;;;;;11.70;6.10;;;;;;;9.07;61.90;99542.43;1733129;80;21650;-59
2021/04/14 06:44:36;;;;;;;8.23;6.03;;;;;;;9.18;61.63;99541.95;1830779;76;23178;-60
2021/04/14 06:47:13;;;;;;;9.83;6.00;;;;;;;9.17;61.50;99553.63;1791983;77;21487;-60
2021/04/14 06:49:51;;;;;;;11.80;5.97;;;;;;;9.19;61.46;99557.56;1792516;77;22095;-60
2021/04/14 06:52:35;;;;;;;12.00;7.83;;;;;;;9.21;61.60;99556.55;1789068;77;21231;-61
2021/04/14 06:55:15;;;;;;;14.15;7.92;;;;;;;9.24;61.53;99560.45;1791154;77;21392;-60
2021/04/14 06:57:47;;;;;;;10.48;7.20;;;;;;;9.25;61.33;99558.64;1790693;77;20921;-60
2021/04/14 07:00:31;;;;;;;8.03;6.15;;;;;;;9.27;61.30;99552.73;1789381;77;20949;-60
2021/04/14 07:03:09;;;;;;;11.10;7.85;;;;;;;9.30;61.46;99557.95;1768146;77;22464;-60
2021/04/14 07:05:53;;;;;;;11.83;6.20;;;;;;;9.33;61.33;99554.66;1791182;77;20984;-60
2021/04/14 07:08:26;;;;;;;7.35;5.65;;;;;;;9.37;61.16;99561.63;1791380;77;20985;-60
2021/04/14 07:10:58;;;;;;;6.50;4.83;;;;;;;9.39;60.86;99561.09;1792017;77;21076;-60
2021/04/14 07:13:27;;;;;;;7.40;5.47;;;;;;;9.41;60.92;99556.52;1789222;77;21115;-60
2021/04/14 07:16:19;;;;;;;10.25;5.70;;;;;;;9.44;60.96;99555.02;1793797;77;21770;-60
2021/04/14 07:18:57;;;;;;;9.80;6.08;;;;;;;9.48;60.70;99563.81;1790740;77;21607;-60
2021/04/14 07:21:44;;;;;;;10.23;6.60;;;;;;;9.54;60.65;99557.27;1797396;77;21550;-60
2021/04/14 07:24:20;;;;;;;11.73;5.97;;;;;;;9.60;60.20;99556.53;1791660;77;21091;-62
2021/04/14 07:27:23;;;;;;;12.05;6.67;;;;;;;9.68;59.90;99559.73;1791440;77;20965;-60
2021/04/14 07:29:58;;;;;;;10.05;7.08;;;;;;;9.77;59.68;99555.27;1792267;77;21415;-60
2021/04/14 07:32:48;;;;;;;9.53;6.70;;;;;;;9.90;59.08;99554.18;1794600;77;20997;-60
2021/04/14 07:35:42;;;;;;;8.70;5.75;;;;;;;9.99;58.59;99552.86;1794483;77;21940;-60
2021/04/14 07:38:39;;;;;;;8.93;7.05;;;;;;;10.11;58.11;99555.84;1790582;77;21525;-60
2021/04/14 07:41:32;;;;;;;7.33;4.75;;;;;;;10.24;57.98;99557.45;1791722;77;21362;-60
2021/04/14 07:44:25;;;;;;;6.65;5.58;;;;;;;10.38;57.77;99559.48;1784240;78;21541;-60
2021/04/14 07:46:52;;;;;;;11.15;7.35;;;;;;;10.49;57.72;99550.36;1787066;78;21694;-60
2021/04/14 07:49:20;;;;;;;13.90;7.87;;;;;;;10.63;57.75;99543.81;1788168;78;21127;-60
2021/04/14 07:51:48;;;;;;;6.70;6.08;;;;;;;10.74;57.29;99552.19;1783767;78;21180;-61
2021/04/14 07:54:18;;;;;;;7.15;4.78;;;;;;;10.84;56.95;99545.38;1785646;78;21085;-60
2021/04/14 07:56:54;;;;;;;11.48;6.35;;;;;;;10.94;56.75;99547.98;1762989;78;21166;-59
2021/04/14 07:59:30;;;;;;;11.25;7.40;;;;;;;11.05;56.67;99542.51;1788388;78;21254;-61
2021/04/14 08:02:02;;;;;;;11.93;7.30;;;;;;;11.18;56.57;99541.75;1791765;78;21015;-61
2021/04/14 08:04:40;;;;;;;7.95;5.85;;;;;;;11.30;56.24;99541.11;1762993;79;21124;-60
2021/04/14 08:07:23;;;;;;;11.53;5.97;;;;;;;11.45;55.66;99539.86;1764023;79;21196;-62
2021/04/14 08:09:59;;;;;;;11.70;6.47;;;;;;;11.63;55.89;99545.59;1766038;79;21284;-60
2021/04/14 08:12:41;;;;;;;7.92;5.22;;;;;;;11.81;54.80;99545.06;1766059;79;21254;-61
2021/04/14 08:15:15;;;;;;;10.63;6.60;;;;;;;11.92;54.24;99542.61;1759961;79;21163;-61
2021/04/14 08:18:15;;;;;;;12.55;8.43;;;;;;;11.98;53.29;99542.28;1746190;80;21237;-60
2021/04/14 08:20:44;;;;;;;9.98;7.83;;;;;;;12.01;53.21;99540.27;1703341;82;21167;-60
2021/04/14 08:23:16;;;;;;;7.83;5.70;;;;;;;12.03;52.96;99540.18;1705306;82;21388;-59
2021/04/14 08:25:48;;;;;;;7.05;5.37;;;;;;;12.04;52.93;99536.53;1707268;82;21582;-60
2021/04/14 08:28:41;;;;;;;10.43;6.70;;;;;;;12.04;52.99;99537.88;1708211;82;21133;-60
2021/04/14 08:31:49;;;;;;;10.00;5.87;;;;;;;12.06;53.20;99537.31;1708798;82;21249;-61
2021/04/14 08:34:31;;;;;;;8.23;6.05;;;;;;;12.11;52.98;99536.08;1707761;82;21485;-60
2021/04/14 08:37:19;;;;;;;11.68;5.60;;;;;;;12.15;52.89;99531.87;1704978;82;21410;-60
2021/04/14 08:40:21;;;;;;;10.98;8.40;;;;;;;12.18;52.89;99530.31;1701798;82;21128;-59
2021/04/14 08:42:50;;;;;;;9.98;6.65;;;;;;;12.20;52.93;99523.88;1703983;82;21192;-60
2021/04/14 08:45:30;;;;;;;12.05;7.15;;;;;;;12.26;52.78;99516.77;1701570;82;21583;-58
2021/04/14 08:48:08;;;;;;;10.78;7.75;;;;;;;12.38;53.43;99517.41;1704324;82;21137;-60
2021/04/14 08:50:49;;;;;;;8.48;7.65;;;;;;;12.58;53.00;99516.70;1676872;82;21523;-60
2021/04/14 08:53:21;;;;;;;10.43;7.50;;;;;;;12.76;52.44;99509.69;1702708;82;21459;-60
2021/04/14 08:55:48;;;;;;;6.80;5.30;;;;;;;12.95;52.12;99505.86;1704801;82;21211;-60
2021/04/14 08:58:18;;;;;;;6.67;5.08;;;;;;;13.09;51.10;99504.06;1699853;82;21234;-61
2021/04/14 09:00:45;;;;;;;9.25;5.50;;;;;;;13.19;49.94;99494.42;1700162;82;21762;-59
2021/04/14 09:03:17;;;;;;;13.30;7.12;;;;;;;13.27;50.19;99492.59;1698161;82;22278;-60
2021/04/14 09:05:45;;;;;;;18.37;6.40;;;;;;;13.33;49.84;99492.22;1702119;82;21178;-60
2021/04/14 09:08:17;;;;;;;7.00;4.92;;;;;;;13.39;49.62;99488.25;1698708;82;21596;-60
2021/04/14 09:13:51;;;;;;;10.93;6.13;;;;;;;13.55;49.20;99482.23;1824126;76;22747;-61
2021/04/14 09:16:49;;;;;;;6.10;3.50;;;;;;;13.57;49.73;99481.18;1797529;77;21572;-59
2021/04/14 09:19:40;;;;;;;7.03;5.00;;;;;;;13.70;49.97;99470.90;1782822;78;21452;-61
2021/04/14 09:22:16;;;;;;;5.15;3.58;;;;;;;13.82;48.74;99470.98;1795198;77;21654;-61
2021/04/14 09:25:07;;;;;;;9.20;5.05;;;;;;;13.92;48.69;99470.76;1796360;77;21191;-59
2021/04/14 09:27:42;;;;;;;12.28;4.53;;;;;;;13.98;47.64;99458.65;1801581;78;21515;-58
2021/04/14 09:30:42;;;;;;;7.83;5.05;;;;;;;14.05;47.75;99460.45;1793153;78;21165;-60
2021/04/14 09:33:17;;;;;;;9.75;3.77;;;;;;;14.14;47.21;99455.29;1672388;83;21406;-59
2021/04/14 09:35:54;;;;;;;7.22;4.65;;;;;;;14.22;46.07;99450.23;1711844;82;21249;-58
2021/04/14 09:38:34;;;;;;;4.17;3.77;;;;;;;14.28;45.99;99447.13;1704610;82;21220;-60
2021/04/14 09:41:17;;;;;;;9.53;5.15;;;;;;;14.36;45.81;99439.83;1705000;82;21741;-59
2021/04/14 09:43:45;;;;;;;7.47;4.42;;;;;;;14.45;46.08;99417.56;1679137;83;21111;-58
2021/04/14 09:46:32;;;;;;;5.45;4.95;;;;;;;14.61;45.83;99429.06;1677328;83;22820;-61
2021/04/14 09:49:14;;;;;;;7.33;5.45;;;;;;;14.61;45.83;99429.06;1680330;83;21210;-59
2021/04/14 09:51:56;;;;;;;6.30;4.92;;;;;;;14.71;46.48;99422.03;1684101;83;21201;-59
2021/04/14 09:54:30;;;;;;;4.92;4.25;;;;;;;14.83;46.41;99417.57;1658401;84;21158;-58
2021/04/14 09:57:03;;;;;;;14.18;6.47;;;;;;;14.94;46.39;99413.63;1679811;84;21545;-59
2021/04/14 10:00:28;;;;;;;6.57;5.00;;;;;;;15.11;46.44;99409.22;1796382;78;23243;-61
2021/04/14 10:03:00;;;;;;;18.70;5.37;;;;;;;15.17;46.41;99411.09;1769847;79;20977;-58
2021/04/14 10:05:28;;;;;;;6.70;5.15;;;;;;;15.29;46.47;99391.23;1770054;79;22212;-59
2021/04/14 10:08:02;;;;;;;5.33;4.95;;;;;;;15.39;46.53;99409.44;1768354;79;20988;-60
2021/04/14 10:10:39;;;;;;;4.35;3.02;;;;;;;15.49;45.40;99404.17;1768263;79;27071;-57
2021/04/14 10:13:10;;;;;;;5.20;4.55;;;;;;;15.52;45.30;99400.75;1686355;81;20986;-60
2021/04/14 10:15:39;;;;;;;5.28;4.47;;;;;;;15.58;45.25;99395.39;1711996;81;21002;-58
2021/04/14 10:18:30;;;;;;;6.22;5.25;;;;;;;15.62;44.56;99391.97;1717576;81;21463;-60
2021/04/14 10:21:13;;;;;;;4.47;3.58;;;;;;;15.67;44.33;99384.34;1713541;82;21009;-58
2021/04/14 10:23:41;;;;;;;4.35;3.95;;;;;;;15.72;44.35;99376.74;1714514;82;21022;-60
2021/04/14 10:26:09;;;;;;;4.53;3.47;;;;;;;15.73;44.03;99373.92;1711690;82;21151;-57
2021/04/14 10:28:41;;;;;;;5.83;3.70;;;;;;;15.77;43.75;99372.69;1709984;82;21169;-59
2021/04/14 10:31:15;;;;;;;10.55;4.25;;;;;;;15.80;44.55;99363.46;1712550;82;21363;-59
2021/04/14 10:33:42;;;;;;;3.67;3.37;;;;;;;15.82;44.33;99370.48;1685845;82;21184;-59
2021/04/14 10:36:24;;;;;;;5.15;3.83;;;;;;;15.83;44.23;99373.58;1712693;82;21207;-60
2021/04/14 10:38:53;;;;;;;5.62;3.65;;;;;;;15.81;43.28;99370.14;1706616;82;21501;-59
2021/04/14 10:41:25;;;;;;;2.75;2.65;;;;;;;15.76;42.93;99366.88;1706050;82;21335;-60
2021/04/14 10:43:52;;;;;;;4.03;2.15;;;;;;;15.73;42.54;99362.20;1685528;82;21411;-59
2021/04/14 10:46:27;;;;;;;3.52;2.15;;;;;;;15.70;42.57;99359.70;1688796;82;21147;-59
2021/04/14 10:49:02;;;;;;;4.53;2.58;;;;;;;15.70;42.25;99353.79;1688259;83;21190;-59
2021/04/14 10:51:41;;;;;;;10.23;2.92;;;;;;;15.75;41.95;99353.42;1687716;82;21676;-61
2021/04/14 10:54:11;;;;;;;4.05;3.08;;;;;;;15.81;42.50;99349.78;1687312;82;21226;-57
2021/04/14 10:56:40;;;;;;;3.52;2.08;;;;;;;15.86;42.39;99359.78;1689860;82;21889;-61
2021/04/14 10:59:11;;;;;;;9.88;2.80;;;;;;;15.93;42.50;99349.80;1681405;82;21191;-59
2021/04/14 11:01:44;;;;;;;9.03;3.00;;;;;;;15.99;41.67;99340.69;1665501;84;21811;-59
2021/04/14 11:04:23;;;;;;;3.92;2.47;;;;;;;16.06;41.27;99345.19;1666401;84;21148;-60
2021/04/14 11:06:54;;;;;;;8.40;3.17;;;;;;;16.13;41.03;99343.23;1663371;84;21667;-59
2021/04/14 11:09:22;;;;;;;9.50;2.45;;;;;;;16.23;40.50;99344.75;1666628;84;23110;-62
2021/04/14 11:11:51;;;;;;;5.62;2.30;;;;;;;16.34;40.71;99339.81;1661620;84;21243;-59
2021/04/14 11:14:22;;;;;;;4.90;1.62;;;;;;;16.40;40.15;99332.56;1668719;84;21191;-59
2021/04/14 11:16:50;;;;;;;6.53;1.95;;;;;;;16.47;39.74;99340.10;1671219;84;21481;-61
2021/04/14 11:19:24;;;;;;;2.33;1.57;;;;;;;16.54;39.94;99336.40;1664292;84;21132;-60
2021/04/14 11:22:09;;;;;;;3.45;2.27;;;;;;;16.59;39.14;99333.68;1665013;84;21396;-58
2021/04/14 11:24:46;;;;;;;9.18;2.25;;;;;;;16.63;38.31;99333.86;1663364;84;21579;-61
2021/04/14 11:27:24;;;;;;;2.58;1.98;;;;;;;16.70;37.81;99327.43;1667673;84;21531;-57
2021/04/14 11:29:52;;;;;;;2.58;1.98;;;;;;;16.75;37.89;99329.30;1664286;84;21164;-60
2021/04/14 11:32:22;;;;;;;2.05;1.55;;;;;;;16.84;37.80;99320.38;1668410;84;22215;-59
2021/04/14 11:35:02;;;;;;;1.50;1.30;;;;;;;16.95;38.08;99323.59;1638842;84;21846;-59
2021/04/14 11:37:44;;;;;;;2.95;2.00;;;;;;;17.02;37.63;99321.61;1673183;83;21197;-61
2021/04/14 11:40:41;;;;;;;1.95;1.37;;;;;;;17.08;37.41;99323.48;1725463;81;21457;-61
2021/04/14 11:43:25;;;;;;;4.37;1.37;;;;;;;17.10;37.29;99326.95;1689180;82;21762;-59
2021/04/14 11:46:01;;;;;;;2.15;1.85;;;;;;;17.08;36.96;99325.70;1684648;83;21210;-57
2021/04/14 11:48:37;;;;;;;15.30;2.70;;;;;;;17.06;36.64;99320.88;1657644;84;21158;-58
2021/04/14 11:51:33;;;;;;;2.22;1.98;;;;;;;17.02;36.37;99320.25;1658864;84;21294;-60
2021/04/14 11:54:18;;;;;;;6.28;1.92;;;;;;;16.97;36.49;99316.19;1659129;84;21184;-57
2021/04/14 11:57:02;;;;;;;3.92;2.27;;;;;;;16.91;36.68;99307.19;1657602;84;21637;-60
2021/04/14 11:59:34;;;;;;;2.55;2.33;;;;;;;16.87;36.84;99306.55;1645389;85;21202;-60
2021/04/14 12:02:12;;;;;;;2.62;2.15;;;;;;;16.90;37.19;99298.16;1658892;84;22098;-62
2021/04/14 12:04:41;;;;;;;4.15;2.80;;;;;;;16.89;37.20;99300.51;1653038;84;21636;-60